sensor_id;sensor_type;location;lat;lon;timestamp;P1;durP1;ratioP1;P2;durP2;ratioP2
15114;SDS011;7658;51.456;7.622;2024-01-30T00:01:41;16.70;;;11.70;;
15114;SDS011;7658;51.456;7.622;2024-01-30T00:04:07;14.50;;;10.83;;
15114;SDS011;7658;51.456;7.622;2024-01-30T00:06:33;13.50;;;11.57;;
15114;SDS011;7658;51.456;7.622;2024-01-30T00:08:58;13.97;;;10.73;;
15114;SDS011;7658;51.456;7.622;2024-01-30T00:11:24;12.67;;;11.07;;
15114;SDS011;7658;51.456;7.622;2024-01-30T00:13:51;12.70;;;10.17;;
15114;SDS011;7658;51.456;7.622;2024-01-30T00:16:20;10.73;;;9.60;;
15114;SDS011;7658;51.456;7.622;2024-01-30T00:18:47;18.17;;;11.53;;
15114;SDS011;7658;51.456;7.622;2024-01-30T00:21:13;11.57;;;10.33;;
15114;SDS011;7658;51.456;7.622;2024-01-30T00:23:39;11.87;;;10.67;;
15114;SDS011;7658;51.456;7.622;2024-01-30T00:26:04;13.03;;;10.53;;
15114;SDS011;7658;51.456;7.622;2024-01-30T00:28:31;13.20;;;10.57;;
15114;SDS011;7658;51.456;7.622;2024-01-30T00:30:57;11.10;;;9.87;;
15114;SDS011;7658;51.456;7.622;2024-01-30T00:33:22;12.13;;;10.07;;
15114;SDS011;7658;51.456;7.622;2024-01-30T00:35:48;12.50;;;10.67;;
15114;SDS011;7658;51.456;7.622;2024-01-30T00:38:14;11.87;;;10.13;;
15114;SDS011;7658;51.456;7.622;2024-01-30T00:40:39;10.70;;;9.60;;
15114;SDS011;7658;51.456;7.622;2024-01-30T00:43:05;13.73;;;9.97;;
15114;SDS011;7658;51.456;7.622;2024-01-30T00:45:31;12.57;;;10.40;;
15114;SDS011;7658;51.456;7.622;2024-01-30T00:47:57;14.33;;;10.13;;
15114;SDS011;7658;51.456;7.622;2024-01-30T00:50:22;12.70;;;10.13;;
15114;SDS011;7658;51.456;7.622;2024-01-30T00:52:48;12.93;;;10.33;;
15114;SDS011;7658;51.456;7.622;2024-01-30T00:55:14;11.93;;;9.90;;
15114;SDS011;7658;51.456;7.622;2024-01-30T00:57:40;12.50;;;10.20;;
15114;SDS011;7658;51.456;7.622;2024-01-30T01:00:06;15.43;;;11.37;;
15114;SDS011;7658;51.456;7.622;2024-01-30T01:02:34;12.67;;;10.70;;
15114;SDS011;7658;51.456;7.622;2024-01-30T01:05:00;13.93;;;10.90;;
15114;SDS011;7658;51.456;7.622;2024-01-30T01:07:26;11.87;;;10.33;;
15114;SDS011;7658;51.456;7.622;2024-01-30T01:09:52;14.13;;;10.50;;
15114;SDS011;7658;51.456;7.622;2024-01-30T01:12:18;12.97;;;10.60;;
15114;SDS011;7658;51.456;7.622;2024-01-30T01:14:44;13.23;;;10.43;;
15114;SDS011;7658;51.456;7.622;2024-01-30T01:17:11;16.57;;;12.40;;
15114;SDS011;7658;51.456;7.622;2024-01-30T01:19:37;15.40;;;11.77;;
15114;SDS011;7658;51.456;7.622;2024-01-30T01:22:03;13.03;;;11.13;;
15114;SDS011;7658;51.456;7.622;2024-01-30T01:24:30;14.77;;;11.87;;
15114;SDS011;7658;51.456;7.622;2024-01-30T01:26:58;16.77;;;12.03;;
15114;SDS011;7658;51.456;7.622;2024-01-30T01:29:24;13.47;;;11.50;;
15114;SDS011;7658;51.456;7.622;2024-01-30T01:31:56;16.70;;;12.30;;
15114;SDS011;7658;51.456;7.622;2024-01-30T01:34:22;14.97;;;11.83;;
15114;SDS011;7658;51.456;7.622;2024-01-30T01:36:48;14.97;;;11.67;;
15114;SDS011;7658;51.456;7.622;2024-01-30T01:39:14;12.33;;;11.00;;
15114;SDS011;7658;51.456;7.622;2024-01-30T01:41:41;13.93;;;11.27;;
15114;SDS011;7658;51.456;7.622;2024-01-30T01:44:07;15.93;;;11.20;;
15114;SDS011;7658;51.456;7.622;2024-01-30T01:46:33;15.70;;;11.80;;
15114;SDS011;7658;51.456;7.622;2024-01-30T01:49:02;17.50;;;11.67;;
15114;SDS011;7658;51.456;7.622;2024-01-30T01:51:31;14.73;;;11.60;;
15114;SDS011;7658;51.456;7.622;2024-01-30T01:53:59;14.87;;;11.50;;
15114;SDS011;7658;51.456;7.622;2024-01-30T01:56:30;14.07;;;11.97;;
15114;SDS011;7658;51.456;7.622;2024-01-30T01:59:04;15.47;;;11.70;;
15114;SDS011;7658;51.456;7.622;2024-01-30T02:01:32;12.87;;;11.23;;
15114;SDS011;7658;51.456;7.622;2024-01-30T02:04:00;13.70;;;11.53;;
15114;SDS011;7658;51.456;7.622;2024-01-30T02:06:26;14.77;;;11.30;;
15114;SDS011;7658;51.456;7.622;2024-01-30T02:08:53;13.13;;;11.73;;
15114;SDS011;7658;51.456;7.622;2024-01-30T02:11:19;17.50;;;11.50;;
15114;SDS011;7658;51.456;7.622;2024-01-30T02:13:46;15.87;;;11.90;;
15114;SDS011;7658;51.456;7.622;2024-01-30T02:16:11;14.53;;;11.57;;
15114;SDS011;7658;51.456;7.622;2024-01-30T02:18:37;13.43;;;11.90;;
15114;SDS011;7658;51.456;7.622;2024-01-30T02:21:08;14.93;;;11.17;;
15114;SDS011;7658;51.456;7.622;2024-01-30T02:23:34;17.20;;;11.73;;
15114;SDS011;7658;51.456;7.622;2024-01-30T02:26:00;13.20;;;11.10;;
15114;SDS011;7658;51.456;7.622;2024-01-30T02:28:26;14.43;;;11.10;;
15114;SDS011;7658;51.456;7.622;2024-01-30T02:30:52;18.00;;;11.60;;
15114;SDS011;7658;51.456;7.622;2024-01-30T02:33:18;15.93;;;12.17;;
15114;SDS011;7658;51.456;7.622;2024-01-30T02:35:44;13.30;;;11.87;;
15114;SDS011;7658;51.456;7.622;2024-01-30T02:38:10;15.33;;;12.37;;
15114;SDS011;7658;51.456;7.622;2024-01-30T02:40:36;12.87;;;11.27;;
15114;SDS011;7658;51.456;7.622;2024-01-30T02:43:02;14.43;;;11.60;;
15114;SDS011;7658;51.456;7.622;2024-01-30T02:45:29;14.50;;;11.77;;
15114;SDS011;7658;51.456;7.622;2024-01-30T02:47:54;16.13;;;12.13;;
15114;SDS011;7658;51.456;7.622;2024-01-30T02:50:20;12.43;;;11.13;;
15114;SDS011;7658;51.456;7.622;2024-01-30T02:52:46;13.43;;;11.33;;
15114;SDS011;7658;51.456;7.622;2024-01-30T02:55:12;16.07;;;12.43;;
15114;SDS011;7658;51.456;7.622;2024-01-30T02:57:38;13.03;;;11.20;;
15114;SDS011;7658;51.456;7.622;2024-01-30T03:00:04;15.03;;;12.03;;
15114;SDS011;7658;51.456;7.622;2024-01-30T03:02:31;16.23;;;11.87;;
15114;SDS011;7658;51.456;7.622;2024-01-30T03:04:58;15.60;;;12.00;;
15114;SDS011;7658;51.456;7.622;2024-01-30T03:07:24;20.10;;;12.00;;
15114;SDS011;7658;51.456;7.622;2024-01-30T03:09:50;17.40;;;12.83;;
15114;SDS011;7658;51.456;7.622;2024-01-30T03:12:16;13.87;;;11.63;;
15114;SDS011;7658;51.456;7.622;2024-01-30T03:14:41;16.37;;;12.50;;
15114;SDS011;7658;51.456;7.622;2024-01-30T03:17:07;14.50;;;12.20;;
15114;SDS011;7658;51.456;7.622;2024-01-30T03:19:33;17.17;;;12.67;;
15114;SDS011;7658;51.456;7.622;2024-01-30T03:21:59;17.53;;;12.37;;
15114;SDS011;7658;51.456;7.622;2024-01-30T03:24:25;14.87;;;12.03;;
15114;SDS011;7658;51.456;7.622;2024-01-30T03:26:51;16.37;;;12.53;;
15114;SDS011;7658;51.456;7.622;2024-01-30T03:29:16;17.03;;;12.07;;
15114;SDS011;7658;51.456;7.622;2024-01-30T03:31:42;15.60;;;12.10;;
15114;SDS011;7658;51.456;7.622;2024-01-30T03:34:08;16.63;;;12.53;;
15114;SDS011;7658;51.456;7.622;2024-01-30T03:36:34;17.67;;;13.23;;
15114;SDS011;7658;51.456;7.622;2024-01-30T03:39:00;16.73;;;12.97;;
15114;SDS011;7658;51.456;7.622;2024-01-30T03:41:26;16.57;;;13.87;;
15114;SDS011;7658;51.456;7.622;2024-01-30T03:43:52;15.03;;;12.53;;
15114;SDS011;7658;51.456;7.622;2024-01-30T03:46:17;18.87;;;13.50;;
15114;SDS011;7658;51.456;7.622;2024-01-30T03:48:44;15.30;;;12.90;;
15114;SDS011;7658;51.456;7.622;2024-01-30T03:51:10;16.77;;;13.27;;
15114;SDS011;7658;51.456;7.622;2024-01-30T03:53:43;16.03;;;13.37;;
15114;SDS011;7658;51.456;7.622;2024-01-30T03:56:11;18.10;;;13.20;;
15114;SDS011;7658;51.456;7.622;2024-01-30T03:58:38;17.90;;;14.00;;
15114;SDS011;7658;51.456;7.622;2024-01-30T04:01:04;16.53;;;13.07;;
15114;SDS011;7658;51.456;7.622;2024-01-30T04:03:30;16.23;;;12.90;;
15114;SDS011;7658;51.456;7.622;2024-01-30T04:05:56;16.70;;;13.50;;
15114;SDS011;7658;51.456;7.622;2024-01-30T04:08:21;16.80;;;13.03;;
15114;SDS011;7658;51.456;7.622;2024-01-30T04:10:47;16.83;;;13.10;;
15114;SDS011;7658;51.456;7.622;2024-01-30T04:13:13;17.17;;;12.27;;
15114;SDS011;7658;51.456;7.622;2024-01-30T04:15:39;16.47;;;13.70;;
15114;SDS011;7658;51.456;7.622;2024-01-30T04:18:05;16.47;;;12.27;;
15114;SDS011;7658;51.456;7.622;2024-01-30T04:20:31;17.33;;;13.47;;
15114;SDS011;7658;51.456;7.622;2024-01-30T04:22:57;14.03;;;12.53;;
15114;SDS011;7658;51.456;7.622;2024-01-30T04:25:23;14.37;;;12.50;;
15114;SDS011;7658;51.456;7.622;2024-01-30T04:27:48;17.63;;;13.23;;
15114;SDS011;7658;51.456;7.622;2024-01-30T04:30:14;15.90;;;12.83;;
15114;SDS011;7658;51.456;7.622;2024-01-30T04:32:40;15.40;;;13.03;;
15114;SDS011;7658;51.456;7.622;2024-01-30T04:35:06;17.40;;;13.07;;
15114;SDS011;7658;51.456;7.622;2024-01-30T04:37:32;19.07;;;13.30;;
15114;SDS011;7658;51.456;7.622;2024-01-30T04:39:58;19.30;;;13.27;;
15114;SDS011;7658;51.456;7.622;2024-01-30T04:42:24;18.70;;;12.37;;
15114;SDS011;7658;51.456;7.622;2024-01-30T04:44:49;14.10;;;12.53;;
15114;SDS011;7658;51.456;7.622;2024-01-30T04:47:15;15.43;;;12.70;;
15114;SDS011;7658;51.456;7.622;2024-01-30T04:49:41;13.20;;;11.80;;
15114;SDS011;7658;51.456;7.622;2024-01-30T04:52:07;16.97;;;13.30;;
15114;SDS011;7658;51.456;7.622;2024-01-30T04:54:34;17.13;;;12.97;;
15114;SDS011;7658;51.456;7.622;2024-01-30T04:57:01;16.60;;;13.10;;
15114;SDS011;7658;51.456;7.622;2024-01-30T04:59:27;14.03;;;12.60;;
15114;SDS011;7658;51.456;7.622;2024-01-30T05:01:54;17.00;;;12.53;;
15114;SDS011;7658;51.456;7.622;2024-01-30T05:04:20;15.33;;;12.73;;
15114;SDS011;7658;51.456;7.622;2024-01-30T05:06:47;15.73;;;12.97;;
15114;SDS011;7658;51.456;7.622;2024-01-30T05:09:13;14.93;;;12.50;;
15114;SDS011;7658;51.456;7.622;2024-01-30T05:11:41;16.43;;;13.17;;
15114;SDS011;7658;51.456;7.622;2024-01-30T05:14:07;14.87;;;12.67;;
15114;SDS011;7658;51.456;7.622;2024-01-30T05:16:37;18.47;;;11.97;;
15114;SDS011;7658;51.456;7.622;2024-01-30T05:19:02;16.90;;;12.47;;
15114;SDS011;7658;51.456;7.622;2024-01-30T05:21:28;14.30;;;11.70;;
15114;SDS011;7658;51.456;7.622;2024-01-30T05:23:54;16.53;;;12.50;;
15114;SDS011;7658;51.456;7.622;2024-01-30T05:26:20;15.13;;;12.70;;
15114;SDS011;7658;51.456;7.622;2024-01-30T05:28:47;17.90;;;14.07;;
15114;SDS011;7658;51.456;7.622;2024-01-30T05:31:13;15.47;;;12.50;;
15114;SDS011;7658;51.456;7.622;2024-01-30T05:33:40;18.83;;;12.70;;
15114;SDS011;7658;51.456;7.622;2024-01-30T05:36:05;14.83;;;12.70;;
15114;SDS011;7658;51.456;7.622;2024-01-30T05:38:31;16.80;;;12.57;;
15114;SDS011;7658;51.456;7.622;2024-01-30T05:40:57;15.60;;;12.97;;
15114;SDS011;7658;51.456;7.622;2024-01-30T05:43:23;14.10;;;12.03;;
15114;SDS011;7658;51.456;7.622;2024-01-30T05:45:49;15.07;;;12.73;;
15114;SDS011;7658;51.456;7.622;2024-01-30T05:48:16;14.70;;;13.07;;
15114;SDS011;7658;51.456;7.622;2024-01-30T05:50:41;15.33;;;13.53;;
15114;SDS011;7658;51.456;7.622;2024-01-30T05:53:07;14.13;;;12.63;;
15114;SDS011;7658;51.456;7.622;2024-01-30T05:55:33;15.27;;;13.47;;
15114;SDS011;7658;51.456;7.622;2024-01-30T05:57:58;16.07;;;13.27;;
15114;SDS011;7658;51.456;7.622;2024-01-30T06:00:24;15.60;;;13.33;;
15114;SDS011;7658;51.456;7.622;2024-01-30T06:02:50;18.47;;;14.07;;
15114;SDS011;7658;51.456;7.622;2024-01-30T06:05:16;16.57;;;13.73;;
15114;SDS011;7658;51.456;7.622;2024-01-30T06:07:41;17.53;;;13.20;;
15114;SDS011;7658;51.456;7.622;2024-01-30T06:10:07;15.13;;;12.73;;
15114;SDS011;7658;51.456;7.622;2024-01-30T06:12:34;16.43;;;13.63;;
15114;SDS011;7658;51.456;7.622;2024-01-30T06:15:00;18.60;;;13.63;;
15114;SDS011;7658;51.456;7.622;2024-01-30T06:17:26;18.33;;;13.77;;
15114;SDS011;7658;51.456;7.622;2024-01-30T06:19:52;16.57;;;13.53;;
15114;SDS011;7658;51.456;7.622;2024-01-30T06:22:18;15.90;;;13.10;;
15114;SDS011;7658;51.456;7.622;2024-01-30T06:24:45;20.10;;;14.03;;
15114;SDS011;7658;51.456;7.622;2024-01-30T06:27:13;16.53;;;13.07;;
15114;SDS011;7658;51.456;7.622;2024-01-30T06:29:40;16.87;;;13.57;;
15114;SDS011;7658;51.456;7.622;2024-01-30T06:32:07;16.30;;;13.80;;
15114;SDS011;7658;51.456;7.622;2024-01-30T06:34:33;15.37;;;13.53;;
15114;SDS011;7658;51.456;7.622;2024-01-30T06:36:59;19.73;;;13.50;;
15114;SDS011;7658;51.456;7.622;2024-01-30T06:39:25;16.00;;;13.70;;
15114;SDS011;7658;51.456;7.622;2024-01-30T06:41:51;18.17;;;13.90;;
15114;SDS011;7658;51.456;7.622;2024-01-30T06:44:17;18.33;;;13.20;;
15114;SDS011;7658;51.456;7.622;2024-01-30T06:46:43;17.30;;;13.57;;
15114;SDS011;7658;51.456;7.622;2024-01-30T06:49:09;17.47;;;13.73;;
15114;SDS011;7658;51.456;7.622;2024-01-30T06:51:34;16.77;;;13.30;;
15114;SDS011;7658;51.456;7.622;2024-01-30T06:54:00;19.80;;;15.00;;
15114;SDS011;7658;51.456;7.622;2024-01-30T06:56:26;21.50;;;14.57;;
15114;SDS011;7658;51.456;7.622;2024-01-30T06:58:52;16.40;;;13.47;;
15114;SDS011;7658;51.456;7.622;2024-01-30T07:01:19;19.70;;;14.67;;
15114;SDS011;7658;51.456;7.622;2024-01-30T07:03:45;16.97;;;13.60;;
15114;SDS011;7658;51.456;7.622;2024-01-30T07:06:12;16.67;;;13.37;;
15114;SDS011;7658;51.456;7.622;2024-01-30T07:08:37;17.37;;;13.37;;
15114;SDS011;7658;51.456;7.622;2024-01-30T07:11:06;17.37;;;13.70;;
15114;SDS011;7658;51.456;7.622;2024-01-30T07:13:32;17.10;;;13.43;;
15114;SDS011;7658;51.456;7.622;2024-01-30T07:15:59;17.27;;;13.53;;
15114;SDS011;7658;51.456;7.622;2024-01-30T07:18:24;19.27;;;13.43;;
15114;SDS011;7658;51.456;7.622;2024-01-30T07:20:50;17.00;;;13.47;;
15114;SDS011;7658;51.456;7.622;2024-01-30T07:23:16;17.60;;;14.27;;
15114;SDS011;7658;51.456;7.622;2024-01-30T07:25:46;16.30;;;14.47;;
15114;SDS011;7658;51.456;7.622;2024-01-30T07:28:15;14.67;;;13.17;;
15114;SDS011;7658;51.456;7.622;2024-01-30T07:30:43;17.27;;;13.60;;
15114;SDS011;7658;51.456;7.622;2024-01-30T07:33:09;17.80;;;13.80;;
15114;SDS011;7658;51.456;7.622;2024-01-30T07:35:35;17.77;;;14.07;;
15114;SDS011;7658;51.456;7.622;2024-01-30T07:38:01;19.43;;;13.83;;
15114;SDS011;7658;51.456;7.622;2024-01-30T07:40:28;17.70;;;14.40;;
15114;SDS011;7658;51.456;7.622;2024-01-30T07:42:55;17.20;;;14.60;;
15114;SDS011;7658;51.456;7.622;2024-01-30T07:45:22;16.87;;;14.30;;
15114;SDS011;7658;51.456;7.622;2024-01-30T07:47:50;19.40;;;15.10;;
15114;SDS011;7658;51.456;7.622;2024-01-30T07:50:16;18.70;;;14.57;;
15114;SDS011;7658;51.456;7.622;2024-01-30T07:52:42;18.67;;;15.27;;
15114;SDS011;7658;51.456;7.622;2024-01-30T07:55:12;21.97;;;15.60;;
15114;SDS011;7658;51.456;7.622;2024-01-30T07:58:17;21.43;;;15.63;;
15114;SDS011;7658;51.456;7.622;2024-01-30T08:00:43;22.20;;;15.50;;
15114;SDS011;7658;51.456;7.622;2024-01-30T08:03:08;17.03;;;15.00;;
15114;SDS011;7658;51.456;7.622;2024-01-30T08:05:34;22.90;;;16.03;;
15114;SDS011;7658;51.456;7.622;2024-01-30T08:08:00;21.67;;;16.23;;
15114;SDS011;7658;51.456;7.622;2024-01-30T08:10:26;22.67;;;15.90;;
15114;SDS011;7658;51.456;7.622;2024-01-30T08:12:51;18.77;;;15.37;;
15114;SDS011;7658;51.456;7.622;2024-01-30T08:15:18;20.80;;;16.20;;
15114;SDS011;7658;51.456;7.622;2024-01-30T08:17:44;18.90;;;15.27;;
15114;SDS011;7658;51.456;7.622;2024-01-30T08:20:10;20.13;;;15.80;;
15114;SDS011;7658;51.456;7.622;2024-01-30T08:22:40;21.00;;;15.23;;
15114;SDS011;7658;51.456;7.622;2024-01-30T08:25:06;21.77;;;15.43;;
15114;SDS011;7658;51.456;7.622;2024-01-30T08:27:32;19.63;;;14.83;;
15114;SDS011;7658;51.456;7.622;2024-01-30T08:30:00;21.13;;;15.93;;
15114;SDS011;7658;51.456;7.622;2024-01-30T08:32:26;21.27;;;15.57;;
15114;SDS011;7658;51.456;7.622;2024-01-30T08:34:52;20.60;;;14.57;;
15114;SDS011;7658;51.456;7.622;2024-01-30T08:37:18;20.10;;;15.03;;
15114;SDS011;7658;51.456;7.622;2024-01-30T08:39:44;23.67;;;15.37;;
15114;SDS011;7658;51.456;7.622;2024-01-30T08:42:09;19.60;;;14.70;;
15114;SDS011;7658;51.456;7.622;2024-01-30T08:44:35;18.33;;;14.77;;
15114;SDS011;7658;51.456;7.622;2024-01-30T08:47:01;20.27;;;15.17;;
15114;SDS011;7658;51.456;7.622;2024-01-30T08:49:28;19.27;;;14.03;;
15114;SDS011;7658;51.456;7.622;2024-01-30T08:51:54;20.67;;;14.90;;
15114;SDS011;7658;51.456;7.622;2024-01-30T08:54:19;18.93;;;14.43;;
15114;SDS011;7658;51.456;7.622;2024-01-30T08:56:45;17.23;;;14.20;;
15114;SDS011;7658;51.456;7.622;2024-01-30T08:59:11;18.57;;;14.57;;
15114;SDS011;7658;51.456;7.622;2024-01-30T09:01:37;22.33;;;14.73;;
15114;SDS011;7658;51.456;7.622;2024-01-30T09:04:02;21.00;;;13.77;;
15114;SDS011;7658;51.456;7.622;2024-01-30T09:06:28;17.17;;;13.30;;
15114;SDS011;7658;51.456;7.622;2024-01-30T09:08:54;17.83;;;13.20;;
15114;SDS011;7658;51.456;7.622;2024-01-30T09:11:20;18.47;;;13.47;;
15114;SDS011;7658;51.456;7.622;2024-01-30T09:13:46;15.87;;;13.70;;
15114;SDS011;7658;51.456;7.622;2024-01-30T09:16:11;17.07;;;14.33;;
15114;SDS011;7658;51.456;7.622;2024-01-30T09:18:37;15.10;;;13.50;;
15114;SDS011;7658;51.456;7.622;2024-01-30T09:21:03;15.37;;;13.23;;
15114;SDS011;7658;51.456;7.622;2024-01-30T09:23:29;18.60;;;14.13;;
15114;SDS011;7658;51.456;7.622;2024-01-30T09:25:55;16.07;;;13.47;;
15114;SDS011;7658;51.456;7.622;2024-01-30T09:28:21;19.13;;;12.13;;
15114;SDS011;7658;51.456;7.622;2024-01-30T09:30:47;14.03;;;11.90;;
15114;SDS011;7658;51.456;7.622;2024-01-30T09:33:12;18.50;;;12.83;;
15114;SDS011;7658;51.456;7.622;2024-01-30T09:35:38;15.77;;;12.90;;
15114;SDS011;7658;51.456;7.622;2024-01-30T09:38:04;15.80;;;12.17;;
15114;SDS011;7658;51.456;7.622;2024-01-30T09:40:30;17.83;;;12.10;;
15114;SDS011;7658;51.456;7.622;2024-01-30T09:42:56;13.17;;;11.40;;
15114;SDS011;7658;51.456;7.622;2024-01-30T09:45:25;14.83;;;10.77;;
15114;SDS011;7658;51.456;7.622;2024-01-30T09:47:51;15.37;;;11.93;;
15114;SDS011;7658;51.456;7.622;2024-01-30T09:50:18;13.47;;;11.03;;
15114;SDS011;7658;51.456;7.622;2024-01-30T09:52:45;13.50;;;10.30;;
15114;SDS011;7658;51.456;7.622;2024-01-30T09:55:12;12.07;;;10.57;;
15114;SDS011;7658;51.456;7.622;2024-01-30T09:57:38;10.93;;;9.83;;
15114;SDS011;7658;51.456;7.622;2024-01-30T10:00:05;11.97;;;9.27;;
15114;SDS011;7658;51.456;7.622;2024-01-30T10:02:34;12.30;;;9.13;;
15114;SDS011;7658;51.456;7.622;2024-01-30T10:05:00;15.17;;;9.90;;
15114;SDS011;7658;51.456;7.622;2024-01-30T10:07:26;12.03;;;8.93;;
15114;SDS011;7658;51.456;7.622;2024-01-30T10:09:52;12.83;;;9.67;;
15114;SDS011;7658;51.456;7.622;2024-01-30T10:12:19;14.27;;;9.05;;
15114;SDS011;7658;51.456;7.622;2024-01-30T10:14:44;12.17;;;8.70;;
15114;SDS011;7658;51.456;7.622;2024-01-30T10:17:10;12.55;;;8.63;;
15114;SDS011;7658;51.456;7.622;2024-01-30T10:19:37;12.18;;;8.55;;
15114;SDS011;7658;51.456;7.622;2024-01-30T10:22:07;13.23;;;9.20;;
15114;SDS011;7658;51.456;7.622;2024-01-30T10:24:34;11.73;;;9.00;;
15114;SDS011;7658;51.456;7.622;2024-01-30T10:27:00;9.23;;;8.02;;
15114;SDS011;7658;51.456;7.622;2024-01-30T10:29:26;14.90;;;9.35;;
15114;SDS011;7658;51.456;7.622;2024-01-30T10:32:02;10.85;;;8.25;;
15114;SDS011;7658;51.456;7.622;2024-01-30T10:34:30;12.35;;;8.10;;
15114;SDS011;7658;51.456;7.622;2024-01-30T10:37:05;9.02;;;7.85;;
15114;SDS011;7658;51.456;7.622;2024-01-30T10:39:38;9.27;;;7.90;;
15114;SDS011;7658;51.456;7.622;2024-01-30T10:42:05;10.00;;;8.20;;
15114;SDS011;7658;51.456;7.622;2024-01-30T10:47:26;10.05;;;8.48;;
15114;SDS011;7658;51.456;7.622;2024-01-30T10:49:52;10.63;;;8.80;;
15114;SDS011;7658;51.456;7.622;2024-01-30T10:52:19;12.30;;;8.40;;
15114;SDS011;7658;51.456;7.622;2024-01-30T10:54:46;10.52;;;8.80;;
15114;SDS011;7658;51.456;7.622;2024-01-30T10:57:12;12.65;;;9.80;;
15114;SDS011;7658;51.456;7.622;2024-01-30T10:59:40;11.40;;;8.35;;
15114;SDS011;7658;51.456;7.622;2024-01-30T11:02:08;10.75;;;8.38;;
15114;SDS011;7658;51.456;7.622;2024-01-30T11:04:38;10.68;;;8.55;;
15114;SDS011;7658;51.456;7.622;2024-01-30T11:07:19;13.45;;;8.23;;
15114;SDS011;7658;51.456;7.622;2024-01-30T11:09:51;11.18;;;7.80;;
15114;SDS011;7658;51.456;7.622;2024-01-30T11:12:26;11.85;;;7.82;;
15114;SDS011;7658;51.456;7.622;2024-01-30T11:15:02;10.50;;;8.45;;
15114;SDS011;7658;51.456;7.622;2024-01-30T11:17:42;12.35;;;8.23;;
15114;SDS011;7658;51.456;7.622;2024-01-30T11:20:14;11.27;;;7.18;;
15114;SDS011;7658;51.456;7.622;2024-01-30T11:22:41;11.88;;;7.63;;
15114;SDS011;7658;51.456;7.622;2024-01-30T11:25:13;8.73;;;7.43;;
15114;SDS011;7658;51.456;7.622;2024-01-30T11:27:41;11.90;;;8.23;;
15114;SDS011;7658;51.456;7.622;2024-01-30T11:30:07;10.80;;;7.13;;
15114;SDS011;7658;51.456;7.622;2024-01-30T11:32:33;12.40;;;8.30;;
15114;SDS011;7658;51.456;7.622;2024-01-30T11:34:59;11.90;;;7.78;;
15114;SDS011;7658;51.456;7.622;2024-01-30T11:37:25;11.20;;;7.60;;
15114;SDS011;7658;51.456;7.622;2024-01-30T11:39:53;13.57;;;7.80;;
15114;SDS011;7658;51.456;7.622;2024-01-30T11:42:19;11.02;;;7.50;;
15114;SDS011;7658;51.456;7.622;2024-01-30T11:44:49;12.00;;;8.00;;
15114;SDS011;7658;51.456;7.622;2024-01-30T11:47:15;12.93;;;8.30;;
15114;SDS011;7658;51.456;7.622;2024-01-30T11:49:41;12.88;;;7.80;;
15114;SDS011;7658;51.456;7.622;2024-01-30T11:52:08;14.40;;;7.95;;
15114;SDS011;7658;51.456;7.622;2024-01-30T11:54:34;10.90;;;7.57;;
15114;SDS011;7658;51.456;7.622;2024-01-30T11:57:00;10.57;;;7.25;;
15114;SDS011;7658;51.456;7.622;2024-01-30T11:59:26;9.65;;;7.10;;
15114;SDS011;7658;51.456;7.622;2024-01-30T12:01:52;11.02;;;7.60;;
15114;SDS011;7658;51.456;7.622;2024-01-30T12:04:18;12.10;;;7.53;;
15114;SDS011;7658;51.456;7.622;2024-01-30T12:06:43;11.48;;;7.53;;
15114;SDS011;7658;51.456;7.622;2024-01-30T12:09:09;11.88;;;7.68;;
15114;SDS011;7658;51.456;7.622;2024-01-30T12:11:46;14.23;;;7.65;;
15114;SDS011;7658;51.456;7.622;2024-01-30T12:14:13;12.43;;;7.82;;
15114;SDS011;7658;51.456;7.622;2024-01-30T12:16:40;14.57;;;7.55;;
15114;SDS011;7658;51.456;7.622;2024-01-30T12:19:06;12.18;;;7.47;;
15114;SDS011;7658;51.456;7.622;2024-01-30T12:21:33;13.73;;;8.02;;
15114;SDS011;7658;51.456;7.622;2024-01-30T12:23:59;11.73;;;7.43;;
15114;SDS011;7658;51.456;7.622;2024-01-30T12:26:25;11.07;;;7.70;;
15114;SDS011;7658;51.456;7.622;2024-01-30T12:28:54;12.32;;;7.53;;
15114;SDS011;7658;51.456;7.622;2024-01-30T12:31:27;11.07;;;7.82;;
15114;SDS011;7658;51.456;7.622;2024-01-30T12:33:53;13.70;;;8.30;;
15114;SDS011;7658;51.456;7.622;2024-01-30T12:36:20;11.50;;;8.18;;
15114;SDS011;7658;51.456;7.622;2024-01-30T12:38:47;11.65;;;7.95;;
15114;SDS011;7658;51.456;7.622;2024-01-30T12:41:13;15.13;;;7.82;;
15114;SDS011;7658;51.456;7.622;2024-01-30T12:43:39;14.55;;;8.43;;
15114;SDS011;7658;51.456;7.622;2024-01-30T12:46:05;12.38;;;8.05;;
15114;SDS011;7658;51.456;7.622;2024-01-30T12:48:31;12.82;;;7.72;;
15114;SDS011;7658;51.456;7.622;2024-01-30T12:50:56;13.90;;;7.85;;
15114;SDS011;7658;51.456;7.622;2024-01-30T12:53:22;14.85;;;8.45;;
15114;SDS011;7658;51.456;7.622;2024-01-30T12:55:48;14.75;;;8.73;;
15114;SDS011;7658;51.456;7.622;2024-01-30T12:58:15;17.77;;;8.68;;
15114;SDS011;7658;51.456;7.622;2024-01-30T13:00:41;16.90;;;8.80;;
15114;SDS011;7658;51.456;7.622;2024-01-30T13:03:08;11.50;;;8.98;;
15114;SDS011;7658;51.456;7.622;2024-01-30T13:05:35;17.85;;;9.07;;
15114;SDS011;7658;51.456;7.622;2024-01-30T13:08:01;13.35;;;7.90;;
15114;SDS011;7658;51.456;7.622;2024-01-30T13:10:26;13.75;;;8.30;;
15114;SDS011;7658;51.456;7.622;2024-01-30T13:12:52;16.33;;;8.05;;
15114;SDS011;7658;51.456;7.622;2024-01-30T13:15:18;13.20;;;8.25;;
15114;SDS011;7658;51.456;7.622;2024-01-30T13:17:44;13.68;;;8.95;;
15114;SDS011;7658;51.456;7.622;2024-01-30T13:20:13;12.75;;;8.20;;
15114;SDS011;7658;51.456;7.622;2024-01-30T13:22:42;13.35;;;8.48;;
15114;SDS011;7658;51.456;7.622;2024-01-30T13:25:08;16.27;;;8.32;;
15114;SDS011;7658;51.456;7.622;2024-01-30T13:27:34;17.00;;;8.93;;
15114;SDS011;7658;51.456;7.622;2024-01-30T13:30:01;15.00;;;8.60;;
15114;SDS011;7658;51.456;7.622;2024-01-30T13:32:26;17.33;;;8.70;;
15114;SDS011;7658;51.456;7.622;2024-01-30T13:34:52;16.95;;;8.77;;
15114;SDS011;7658;51.456;7.622;2024-01-30T13:37:18;14.13;;;9.02;;
15114;SDS011;7658;51.456;7.622;2024-01-30T13:39:44;11.95;;;8.30;;
15114;SDS011;7658;51.456;7.622;2024-01-30T13:42:09;14.88;;;8.60;;
15114;SDS011;7658;51.456;7.622;2024-01-30T13:44:35;15.00;;;9.20;;
15114;SDS011;7658;51.456;7.622;2024-01-30T13:47:01;14.00;;;8.80;;
15114;SDS011;7658;51.456;7.622;2024-01-30T13:49:27;13.57;;;9.38;;
15114;SDS011;7658;51.456;7.622;2024-01-30T13:51:53;12.70;;;8.77;;
15114;SDS011;7658;51.456;7.622;2024-01-30T13:54:19;11.55;;;8.45;;
15114;SDS011;7658;51.456;7.622;2024-01-30T13:56:44;16.40;;;8.90;;
15114;SDS011;7658;51.456;7.622;2024-01-30T13:59:10;15.70;;;9.23;;
15114;SDS011;7658;51.456;7.622;2024-01-30T14:01:36;15.35;;;9.80;;
15114;SDS011;7658;51.456;7.622;2024-01-30T14:04:02;15.63;;;10.23;;
15114;SDS011;7658;51.456;7.622;2024-01-30T14:06:27;17.88;;;9.38;;
15114;SDS011;7658;51.456;7.622;2024-01-30T14:08:53;15.30;;;9.90;;
15114;SDS011;7658;51.456;7.622;2024-01-30T14:11:19;16.92;;;9.50;;
15114;SDS011;7658;51.456;7.622;2024-01-30T14:13:45;17.98;;;9.90;;
15114;SDS011;7658;51.456;7.622;2024-01-30T14:16:10;14.30;;;10.07;;
15114;SDS011;7658;51.456;7.622;2024-01-30T14:18:36;16.40;;;9.68;;
15114;SDS011;7658;51.456;7.622;2024-01-30T14:21:02;15.65;;;9.65;;
15114;SDS011;7658;51.456;7.622;2024-01-30T14:23:28;15.57;;;9.57;;
15114;SDS011;7658;51.456;7.622;2024-01-30T14:25:54;14.25;;;9.75;;
15114;SDS011;7658;51.456;7.622;2024-01-30T14:28:19;14.90;;;10.02;;
15114;SDS011;7658;51.456;7.622;2024-01-30T14:30:45;17.55;;;9.90;;
15114;SDS011;7658;51.456;7.622;2024-01-30T14:33:12;17.45;;;10.68;;
15114;SDS011;7658;51.456;7.622;2024-01-30T14:35:38;17.75;;;10.95;;
15114;SDS011;7658;51.456;7.622;2024-01-30T14:38:03;15.43;;;10.00;;